Time;durP1;ratioP1;P1;durP2;ratioP2;P2;SDS_P1;SDS_P2;PMS_P1;PMS_P2;Temp;Humidity;BMP_temperature;BMP_pressure;BME280_temperature;BME280_humidity;BME280_pressure;Samples;Min_cycle;Max_cycle;Signal;HPM_P1;HPM_P2
2021/12/12 07:09:41;;;;;;;5.50;4.23;;;3.10;99.90;;;;;;4691047;30;20464;-89
2021/12/12 09:18:27;;;;;;;;;;;;;;;;;;;;;
2021/12/12 10:22:56;;;;;;;7.03;4.07;;;6.40;99.90;;;;;;4033682;23;20492;-87
2021/12/12 10:25:33;;;;;;;3.80;3.40;;;6.60;99.90;;;;;;4988146;28;20447;-87
2021/12/12 10:28:16;;;;;;;4.30;3.47;;;6.60;99.90;;;;;;4987183;28;20444;-88
2021/12/12 10:30:50;;;;;;;4.97;4.00;;;6.70;99.90;;;;;;4996744;28;20443;-86
2021/12/12 10:33:21;;;;;;;6.00;3.60;;;6.70;99.90;;;;;;4986738;28;20448;-87
2021/12/12 10:38:38;;;;;;;2.97;2.73;;;6.80;99.90;;;;;;5093663;23;20482;-83
2021/12/12 10:41:09;;;;;;;5.70;3.67;;;6.80;99.90;;;;;;5012585;28;20450;-85
2021/12/12 10:43:40;;;;;;;4.53;3.10;;;6.60;99.90;;;;;;5014893;28;20443;-86
2021/12/12 10:46:23;;;;;;;5.67;4.00;;;6.70;99.90;;;;;;5006618;28;20447;-86
2021/12/12 10:49:01;;;;;;;6.30;3.00;;;6.90;99.90;;;;;;5007070;28;20535;-80
2021/12/12 10:51:31;;;;;;;5.23;3.20;;;7.10;99.80;;;;;;4989544;28;20474;-81
2021/12/12 10:54:05;;;;;;;3.47;3.10;;;7.30;99.80;;;;;;5001373;28;20451;-80
2021/12/12 10:56:38;;;;;;;3.30;2.93;;;7.40;99.60;;;;;;4991021;28;20478;-81
2021/12/12 10:59:18;;;;;;;2.83;2.57;;;7.40;99.50;;;;;;5003943;28;20952;-87
2021/12/12 11:01:49;;;;;;;4.43;2.63;;;7.50;99.40;;;;;;5000260;28;20465;-86
2021/12/12 11:04:20;;;;;;;3.77;2.80;;;7.60;98.30;;;;;;5017142;28;20491;-88
2021/12/12 11:06:50;;;;;;;5.00;2.30;;;7.80;97.90;;;;;;5011401;28;20447;-87
2021/12/12 11:09:27;;;;;;;2.73;2.50;;;7.90;97.70;;;;;;5014714;28;20495;-86
2021/12/12 11:12:02;;;;;;;3.13;2.37;;;7.90;97.70;;;;;;5018369;28;20481;-86
2021/12/12 11:14:32;;;;;;;3.50;2.50;;;8.10;97.60;;;;;;5017857;28;20457;-84
2021/12/12 11:17:03;;;;;;;2.53;2.00;;;8.00;96.90;;;;;;5015098;28;20479;-85
2021/12/12 11:19:35;;;;;;;7.97;2.07;;;7.90;96.60;;;;;;5010105;28;20447;-86
2021/12/12 11:22:06;;;;;;;10.97;2.77;;;8.00;97.00;;;;;;5016259;28;20471;-85
2021/12/12 11:24:37;;;;;;;3.13;2.60;;;8.00;96.90;;;;;;5018226;28;20447;-85
2021/12/12 11:27:07;;;;;;;3.00;2.70;;;8.00;97.00;;;;;;5016011;28;20485;-87
2021/12/12 11:29:37;;;;;;;3.60;2.87;;;8.00;96.60;;;;;;5010403;28;20960;-87
2021/12/12 11:32:07;;;;;;;3.60;2.70;;;8.00;96.80;;;;;;5019768;28;20461;-86
2021/12/12 11:34:36;;;;;;;5.40;2.50;;;8.00;96.30;;;;;;5019482;28;20605;-85
2021/12/12 11:37:12;;;;;;;3.50;2.40;;;7.90;96.70;;;;;;5015510;28;20566;-86
2021/12/12 11:39:46;;;;;;;5.80;2.50;;;8.00;97.00;;;;;;5007441;28;20451;-85
2021/12/12 11:42:21;;;;;;;5.07;2.20;;;8.10;96.60;;;;;;5001420;28;20466;-83
2021/12/12 11:45:00;;;;;;;4.10;2.60;;;8.00;96.60;;;;;;4987392;28;20462;-87
2021/12/12 11:47:50;;;;;;;4.83;2.17;;;8.00;96.80;;;;;;5004725;28;20542;-86
2021/12/12 11:50:26;;;;;;;7.33;2.60;;;8.00;96.60;;;;;;4990120;28;20462;-85
2021/12/12 11:52:56;;;;;;;3.10;2.43;;;8.00;96.90;;;;;;5005232;28;20473;-86
2021/12/12 11:55:28;;;;;;;4.73;2.10;;;8.00;97.20;;;;;;5004595;28;20455;-86
2021/12/12 11:58:05;;;;;;;3.43;2.67;;;8.10;96.70;;;;;;5005484;28;20427;-85
2021/12/12 12:00:37;;;;;;;3.43;2.30;;;8.20;96.70;;;;;;5010331;28;20462;-88
2021/12/12 12:03:27;;;;;;;2.23;1.80;;;8.20;96.70;;;;;;5012977;28;21016;-85
2021/12/12 12:06:10;;;;;;;4.00;2.00;;;8.30;96.70;;;;;;5006992;28;20466;-87
2021/12/12 12:08:57;;;;;;;5.30;3.07;;;8.30;96.30;;;;;;5012054;28;20447;-84
2021/12/12 12:11:38;;;;;;;2.83;1.70;;;8.50;96.10;;;;;;5009872;28;20467;-85
2021/12/12 12:14:09;;;;;;;2.23;2.03;;;8.60;95.50;;;;;;5003935;28;20455;-84
2021/12/12 12:16:47;;;;;;;3.17;2.50;;;8.60;94.90;;;;;;4999804;28;20486;-83
2021/12/12 12:19:22;;;;;;;2.70;1.93;;;8.60;95.20;;;;;;5008249;28;20450;-82
2021/12/12 12:22:03;;;;;;;11.73;2.70;;;8.50;95.00;;;;;;5006156;28;20473;-87
2021/12/12 12:24:40;;;;;;;1.67;1.57;;;8.60;95.30;;;;;;5000585;28;20461;-84
2021/12/12 12:27:13;;;;;;;2.70;2.50;;;8.70;94.70;;;;;;4998959;28;20450;-86
2021/12/12 12:30:20;;;;;;;3.40;2.00;;;8.80;93.90;;;;;;4997753;28;20804;-85
2021/12/12 12:33:29;;;;;;;4.77;1.70;;;8.70;94.60;;;;;;4999745;28;20471;-87
2021/12/12 12:37:04;;;;;;;3.90;1.80;;;8.90;94.80;;;;;;4993457;28;20478;-84
2021/12/12 12:40:10;;;;;;;1.40;1.30;;;8.80;95.10;;;;;;4980439;28;20443;-85
2021/12/12 12:43:38;;;;;;;2.50;1.70;;;8.80;94.70;;;;;;4974484;28;20518;-83
2021/12/12 12:46:50;;;;;;;1.73;1.50;;;9.00;94.40;;;;;;5002147;28;20495;-84
2021/12/12 12:49:55;;;;;;;2.33;1.80;;;8.90;94.00;;;;;;5003340;28;20828;-85
2021/12/12 12:52:46;;;;;;;3.70;2.00;;;8.90;93.50;;;;;;4997488;28;20533;-84
2021/12/12 12:55:41;;;;;;;2.90;1.40;;;8.70;93.90;;;;;;5002214;28;20454;-84
2021/12/12 12:58:18;;;;;;;5.13;2.00;;;8.60;93.70;;;;;;4984154;28;20485;-84
2021/12/12 13:00:47;;;;;;;3.80;2.00;;;8.30;93.70;;;;;;4995974;28;20455;-85
2021/12/12 13:03:35;;;;;;;5.47;2.10;;;8.10;94.00;;;;;;4992864;28;20947;-84
2021/12/12 13:06:57;;;;;;;2.77;2.10;;;8.00;93.90;;;;;;4994655;28;20477;-87
2021/12/12 13:09:37;;;;;;;5.90;2.13;;;7.90;94.40;;;;;;4997126;28;21010;-87
2021/12/12 13:12:34;;;;;;;3.07;2.07;;;8.00;94.60;;;;;;5002319;28;20877;-84
2021/12/12 13:15:14;;;;;;;2.43;2.07;;;8.00;94.80;;;;;;4982010;28;20530;-85
2021/12/12 13:17:57;;;;;;;5.23;2.67;;;8.20;95.00;;;;;;5000823;28;20827;-85
2021/12/12 13:20:42;;;;;;;7.37;2.00;;;8.30;94.40;;;;;;4996748;28;20443;-84
2021/12/12 13:23:29;;;;;;;3.30;2.17;;;8.40;94.20;;;;;;4999305;28;20451;-84
2021/12/12 13:26:02;;;;;;;3.70;2.00;;;8.30;94.10;;;;;;5004230;28;20451;-85
2021/12/12 13:28:47;;;;;;;3.53;2.50;;;8.20;94.70;;;;;;5005344;28;20450;-84
2021/12/12 13:31:21;;;;;;;3.70;2.63;;;8.20;94.70;;;;;;5009605;28;20467;-84
2021/12/12 13:33:59;;;;;;;3.93;2.23;;;8.10;95.00;;;;;;5003687;28;20459;-84
2021/12/12 13:36:41;;;;;;;3.57;2.60;;;8.00;94.90;;;;;;5008828;28;20489;-84
2021/12/12 13:39:14;;;;;;;3.77;2.27;;;7.90;94.80;;;;;;5005274;28;20506;-83
2021/12/12 13:42:06;;;;;;;2.63;1.70;;;7.90;94.70;;;;;;5012957;28;20462;-82
2021/12/12 13:44:55;;;;;;;4.60;2.57;;;7.60;94.60;;;;;;5008089;28;20481;-83
2021/12/12 13:47:42;;;;;;;3.23;1.87;;;7.70;95.50;;;;;;5010296;28;20481;-83
2021/12/12 13:50:19;;;;;;;2.73;2.40;;;7.70;95.40;;;;;;5003776;28;20485;-83
2021/12/12 13:52:54;;;;;;;7.63;2.50;;;7.70;95.20;;;;;;5009568;28;20477;-85
2021/12/12 13:55:29;;;;;;;4.13;2.80;;;7.80;95.60;;;;;;5005904;28;20439;-85
2021/12/12 13:58:11;;;;;;;2.37;2.17;;;7.70;95.20;;;;;;5006235;28;20482;-84
2021/12/12 14:00:44;;;;;;;6.30;2.77;;;7.80;95.20;;;;;;5006172;28;20837;-83
2021/12/12 14:03:20;;;;;;;3.30;3.00;;;7.80;95.60;;;;;;5003303;28;20976;-83
2021/12/12 14:05:49;;;;;;;4.70;2.43;;;7.80;95.30;;;;;;4999733;28;20458;-83
2021/12/12 14:08:18;;;;;;;6.87;2.13;;;7.80;95.70;;;;;;5002826;28;20431;-85
2021/12/12 14:10:49;;;;;;;2.23;2.03;;;7.70;95.80;;;;;;5002655;28;20451;-85
2021/12/12 14:13:22;;;;;;;3.23;2.30;;;7.70;95.70;;;;;;5009086;28;20454;-86
2021/12/12 14:15:54;;;;;;;3.50;2.63;;;7.70;95.70;;;;;;5012327;28;20443;-83
2021/12/12 14:18:23;;;;;;;5.73;3.07;;;7.80;96.20;;;;;;5005822;28;20473;-84
2021/12/12 14:20:56;;;;;;;3.63;2.03;;;7.70;95.90;;;;;;4999649;28;20455;-84
2021/12/12 14:23:26;;;;;;;2.20;2.00;;;7.80;95.80;;;;;;4999384;28;20448;-81
2021/12/12 14:25:58;;;;;;;4.83;2.63;;;7.70;95.70;;;;;;5003017;28;20451;-83
2021/12/12 14:28:31;;;;;;;3.80;2.43;;;7.80;96.30;;;;;;5003909;28;20460;-86
2021/12/12 14:30:58;;;;;;;4.50;2.73;;;7.90;95.90;;;;;;5004035;28;20491;-86
2021/12/12 14:33:29;;;;;;;4.63;2.60;;;8.00;96.00;;;;;;5004645;28;20454;-85
2021/12/12 14:36:00;;;;;;;5.77;2.63;;;8.00;95.90;;;;;;5011240;28;20447;-88
2021/12/12 14:38:28;;;;;;;3.90;2.93;;;8.00;95.50;;;;;;5011888;28;20483;-87
2021/12/12 14:40:58;;;;;;;3.67;2.60;;;7.90;96.00;;;;;;5012428;28;20491;-87
2021/12/12 14:43:32;;;;;;;3.20;2.60;;;7.90;95.60;;;;;;5009480;28;20447;-87
2021/12/12 14:46:02;;;;;;;4.97;3.67;;;8.00;95.70;;;;;;5009785;28;20431;-88
2021/12/12 14:48:33;;;;;;;9.17;6.37;;;8.00;95.50;;;;;;5004436;28;20435;-88
2021/12/12 14:51:05;;;;;;;6.57;3.67;;;7.90;95.70;;;;;;5011960;28;20466;-84
2021/12/12 14:53:36;;;;;;;7.10;2.90;;;7.90;96.00;;;;;;4992468;28;20545;-87
2021/12/12 14:56:07;;;;;;;2.63;2.33;;;7.80;95.80;;;;;;5007105;28;20455;-85
2021/12/12 14:58:46;;;;;;;3.10;2.30;;;7.80;95.60;;;;;;4997370;28;20995;-88
2021/12/12 15:01:17;;;;;;;3.30;2.40;;;7.70;96.10;;;;;;5006202;28;20475;-86
2021/12/12 15:03:49;;;;;;;5.30;3.07;;;7.70;96.70;;;;;;5009421;28;20451;-87
2021/12/12 15:06:19;;;;;;;4.10;3.27;;;7.70;96.20;;;;;;5016856;28;20459;-87
2021/12/12 15:08:52;;;;;;;4.33;3.10;;;7.70;96.10;;;;;;5013592;28;21117;-90
2021/12/12 15:11:23;;;;;;;3.10;2.50;;;7.70;96.20;;;;;;5004531;28;20502;-88
2021/12/12 15:13:54;;;;;;;5.23;2.27;;;7.70;96.00;;;;;;5002172;28;20462;-88
2021/12/12 15:16:29;;;;;;;3.00;2.67;;;7.70;96.20;;;;;;5000603;28;20509;-89
2021/12/12 15:18:57;;;;;;;3.90;2.93;;;7.80;96.60;;;;;;5003142;28;20850;-86
2021/12/12 15:21:29;;;;;;;3.33;2.97;;;7.70;96.30;;;;;;5004397;28;20466;-88
2021/12/12 15:23:59;;;;;;;3.03;2.63;;;7.70;95.70;;;;;;4989482;28;20474;-84
2021/12/12 15:26:29;;;;;;;3.70;2.60;;;7.70;95.90;;;;;;5006239;28;20437;-86
2021/12/12 15:29:00;;;;;;;5.10;2.40;;;7.70;96.20;;;;;;5016907;28;20448;-86
2021/12/12 15:31:32;;;;;;;4.63;2.80;;;7.70;96.30;;;;;;5018990;28;20522;-86
2021/12/12 15:34:07;;;;;;;3.20;2.40;;;7.70;96.70;;;;;;5018704;28;20431;-86
2021/12/12 15:36:38;;;;;;;2.50;2.30;;;7.70;97.10;;;;;;5009047;28;20471;-87
2021/12/12 15:39:07;;;;;;;2.50;2.20;;;7.60;97.00;;;;;;5004354;28;20479;-86
2021/12/12 15:41:38;;;;;;;4.47;2.53;;;7.50;97.20;;;;;;5005232;28;20479;-87
2021/12/12 15:44:12;;;;;;;2.80;2.50;;;7.50;97.10;;;;;;5001599;28;20455;-87
2021/12/12 15:46:47;;;;;;;3.00;2.70;;;7.50;97.80;;;;;;4998191;28;20450;-87
2021/12/12 15:49:19;;;;;;;5.30;2.33;;;7.50;97.70;;;;;;5012098;28;20467;-87
2021/12/12 15:51:47;;;;;;;4.23;2.63;;;7.50;98.00;;;;;;5011086;28;20622;-88
2021/12/12 15:54:19;;;;;;;2.90;2.70;;;7.50;97.90;;;;;;5002702;28;20458;-88
2021/12/12 15:56:55;;;;;;;3.10;2.20;;;7.40;98.00;;;;;;5000998;28;20451;-88
2021/12/12 15:59:26;;;;;;;3.10;2.77;;;7.50;98.00;;;;;;5009452;28;20505;-88
2021/12/12 16:21:29;;;;;;;5.03;2.83;;;7.60;98.00;;;;;;1382191;26;20463;-85
2021/12/12 16:24:22;;;;;;;9.07;3.10;;;7.60;97.90;;;;;;4973331;28;20451;-85
2021/12/12 16:31:19;;;;;;;;;;;;;;;;;;;;;
2021/12/12 16:37:12;;;;;;;3.97;3.30;;;7.60;98.00;;;;;;4954830;23;20494;-89
2021/12/12 16:39:43;;;;;;;8.13;3.00;;;7.50;98.00;;;;;;5017581;28;20465;-90
2021/12/12 16:48:56;;;;;;;5.60;3.50;;;7.50;98.20;;;;;;4934663;29;20486;-93
2021/12/12 16:55:19;;;;;;;3.53;3.20;;;7.50;97.60;;;;;;4880768;29;20543;-92
2021/12/12 17:51:48;;;;;;;12.20;5.30;;;7.80;98.40;;;;;;4913698;29;20459;-89
2021/12/12 17:54:23;;;;;;;7.27;6.17;;;7.70;98.60;;;;;;4985666;28;20452;-90
2021/12/12 17:56:59;;;;;;;6.63;3.27;;;7.70;98.70;;;;;;4981020;28;20843;-90
2021/12/12 17:59:34;;;;;;;5.20;4.07;;;7.80;98.60;;;;;;4984454;28;20523;-90
2021/12/12 18:02:03;;;;;;;4.00;3.40;;;7.70;98.70;;;;;;5017695;28;20446;-91
2021/12/12 18:04:31;;;;;;;6.50;3.17;;;7.70;98.50;;;;;;5025925;28;20442;-90
2021/12/12 18:07:01;;;;;;;3.83;3.50;;;7.70;98.70;;;;;;5018091;28;20467;-89
2021/12/12 18:10:01;;;;;;;3.77;3.47;;;7.70;98.60;;;;;;5023783;28;20505;-88
2021/12/12 18:12:30;;;;;;;4.37;2.97;;;7.70;98.70;;;;;;5028540;28;20457;-88
2021/12/12 18:15:01;;;;;;;6.20;3.30;;;7.70;98.90;;;;;;5022120;28;20516;-88
2021/12/12 18:17:51;;;;;;;4.43;3.10;;;7.60;98.90;;;;;;5026481;28;20497;-91
2021/12/12 18:20:35;;;;;;;4.77;3.27;;;7.70;98.80;;;;;;5029041;28;20438;-90
2021/12/12 18:23:07;;;;;;;3.13;2.87;;;7.60;99.00;;;;;;5028794;28;20452;-90
2021/12/12 18:25:38;;;;;;;4.20;3.80;;;7.60;99.20;;;;;;5029665;28;20454;-90
2021/12/12 18:28:14;;;;;;;4.93;4.00;;;7.60;99.40;;;;;;5030029;28;20493;-91
2021/12/12 18:30:44;;;;;;;5.40;3.33;;;7.60;99.40;;;;;;5026935;28;20445;-91
2021/12/12 18:33:14;;;;;;;12.73;3.60;;;7.60;99.80;;;;;;5022202;28;20442;-91
2021/12/12 18:35:46;;;;;;;4.77;3.03;;;7.60;99.60;;;;;;5024911;28;20474;-90
2021/12/12 18:38:17;;;;;;;3.57;3.20;;;7.60;99.60;;;;;;5022925;28;20489;-91
2021/12/12 18:40:49;;;;;;;4.43;3.67;;;7.60;99.50;;;;;;5014596;28;20472;-91
2021/12/12 18:43:26;;;;;;;4.40;3.63;;;7.70;99.40;;;;;;5029167;28;20433;-90
2021/12/12 18:45:54;;;;;;;7.87;3.13;;;7.60;99.50;;;;;;5039807;28;20438;-90
2021/12/12 18:48:23;;;;;;;5.30;4.80;;;7.70;99.60;;;;;;5031095;28;20473;-91
2021/12/12 18:50:53;;;;;;;4.17;3.30;;;7.70;99.60;;;;;;5028227;28;20462;-90
2021/12/12 18:53:28;;;;;;;3.50;3.20;;;7.80;99.60;;;;;;5027935;28;20449;-92
2021/12/12 18:55:59;;;;;;;6.80;3.73;;;7.70;99.60;;;;;;5036439;28;20493;-92
2021/12/12 18:58:33;;;;;;;3.47;3.17;;;7.80;99.90;;;;;;5030774;28;20492;-92
2021/12/12 19:01:09;;;;;;;6.80;3.73;;;7.80;99.90;;;;;;5026812;28;20460;-92
2021/12/12 19:03:48;;;;;;;6.50;3.20;;;7.70;99.70;;;;;;5033103;28;20434;-90
2021/12/12 19:06:20;;;;;;;6.40;3.47;;;7.70;99.90;;;;;;5029156;28;20470;-90
2021/12/12 19:08:47;;;;;;;4.73;4.23;;;7.80;99.90;;;;;;5024734;28;20860;-90
2021/12/12 19:11:21;;;;;;;4.60;3.20;;;7.80;99.90;;;;;;5023631;28;20453;-90
2021/12/12 19:13:57;;;;;;;3.77;3.40;;;7.70;99.90;;;;;;5021896;28;20437;-91
2021/12/12 19:16:27;;;;;;;4.70;3.70;;;7.70;99.90;;;;;;5021685;28;20470;-91
2021/12/12 19:18:56;;;;;;;5.93;3.60;;;7.70;99.90;;;;;;5023217;28;20482;-92
2021/12/12 19:21:25;;;;;;;3.70;3.30;;;7.70;99.90;;;;;;5025328;28;20446;-91
2021/12/12 19:23:54;;;;;;;7.10;4.00;;;7.70;99.90;;;;;;5029566;28;20455;-88
2021/12/12 19:26:23;;;;;;;4.87;4.30;;;7.70;99.90;;;;;;5027150;28;20434;-87
2021/12/12 19:28:55;;;;;;;3.60;3.30;;;7.70;99.90;;;;;;5018822;28;20454;-92
2021/12/12 19:31:32;;;;;;;4.70;4.30;;;7.70;99.90;;;;;;5016352;28;20774;-91
2021/12/12 19:34:06;;;;;;;3.80;3.37;;;7.70;99.90;;;;;;5016665;28;20465;-91
2021/12/12 19:36:36;;;;;;;18.57;14.03;;;7.80;99.90;;;;;;5016022;28;20479;-89
2021/12/12 19:39:08;;;;;;;8.03;7.00;;;7.70;99.90;;;;;;5017144;28;20548;-91
2021/12/12 19:41:36;;;;;;;4.93;4.37;;;7.70;99.90;;;;;;5034118;28;20434;-87
2021/12/12 19:44:07;;;;;;;5.43;3.87;;;7.80;99.90;;;;;;5024666;28;20508;-88
2021/12/12 19:46:37;;;;;;;3.87;3.40;;;7.80;99.90;;;;;;5012736;28;20448;-88
2021/12/12 19:49:07;;;;;;;4.10;3.70;;;7.80;99.90;;;;;;5018485;28;20446;-88
2021/12/12 19:51:37;;;;;;;3.87;3.57;;;7.80;99.90;;;;;;5010832;28;20446;-87
2021/12/12 19:54:07;;;;;;;5.20;4.10;;;7.80;99.90;;;;;;5012313;28;20458;-87
2021/12/12 19:56:38;;;;;;;4.60;4.20;;;7.80;99.90;;;;;;5009619;28;20450;-87
2021/12/12 19:59:07;;;;;;;5.33;4.00;;;7.80;99.90;;;;;;5014401;28;20505;-92
2021/12/12 20:01:37;;;;;;;5.17;4.20;;;7.80;99.90;;;;;;5013303;28;20485;-90
2021/12/12 20:04:07;;;;;;;5.00;4.60;;;7.80;99.90;;;;;;5013987;28;20446;-89
2021/12/12 20:06:37;;;;;;;6.10;4.80;;;7.70;99.90;;;;;;5014523;28;20810;-88
2021/12/12 20:09:10;;;;;;;6.97;4.37;;;7.80;99.90;;;;;;5014716;28;20430;-90
2021/12/12 20:11:40;;;;;;;3.60;3.00;;;7.70;99.90;;;;;;5014666;28;20458;-90
2021/12/12 20:14:13;;;;;;;3.93;3.63;;;7.80;99.90;;;;;;5013647;28;20461;-91
2021/12/12 20:16:44;;;;;;;7.00;4.80;;;7.80;99.90;;;;;;5028223;28;20418;-88
2021/12/12 20:19:16;;;;;;;5.40;4.57;;;7.70;99.90;;;;;;5037071;28;20476;-87
2021/12/12 20:21:46;;;;;;;3.37;3.07;;;7.80;99.90;;;;;;5033484;28;20439;-90
2021/12/12 20:24:17;;;;;;;3.33;3.03;;;7.70;99.90;;;;;;5020690;28;20466;-88
2021/12/12 20:26:47;;;;;;;2.90;2.70;;;7.60;99.90;;;;;;5030372;28;20508;-88
2021/12/12 20:29:16;;;;;;;4.53;4.10;;;7.60;99.90;;;;;;5028863;28;20441;-89
2021/12/12 20:31:44;;;;;;;4.93;3.90;;;7.60;99.90;;;;;;5019190;28;20518;-90
2021/12/12 20:34:14;;;;;;;4.43;4.00;;;7.60;99.90;;;;;;5015537;28;20442;-90
2021/12/12 20:36:44;;;;;;;6.17;3.67;;;7.60;99.90;;;;;;5017367;28;20439;-89
2021/12/12 20:39:15;;;;;;;4.83;3.53;;;7.60;99.90;;;;;;5021187;28;20593;-88
2021/12/12 20:41:45;;;;;;;6.40;3.53;;;7.60;99.90;;;;;;5033045;28;20456;-89
2021/12/12 20:44:27;;;;;;;5.43;3.13;;;7.60;99.90;;;;;;5025671;28;20514;-90
2021/12/12 20:46:58;;;;;;;3.60;2.80;;;7.70;99.90;;;;;;5030604;28;20491;-89
2021/12/12 20:49:29;;;;;;;4.73;3.77;;;7.70;99.90;;;;;;5015091;28;20970;-90
2021/12/12 20:52:02;;;;;;;4.33;3.67;;;7.70;99.90;;;;;;5015813;28;20451;-91
2021/12/12 20:54:33;;;;;;;3.70;3.40;;;7.80;99.90;;;;;;5019640;28;20538;-90
2021/12/12 20:57:06;;;;;;;5.17;3.87;;;7.80;99.90;;;;;;5023306;28;20493;-89
2021/12/12 20:59:39;;;;;;;4.63;3.60;;;7.80;99.90;;;;;;5021545;28;20501;-92
2021/12/12 21:02:09;;;;;;;4.27;3.87;;;7.80;99.90;;;;;;5023858;28;20450;-90
2021/12/12 21:04:45;;;;;;;5.40;4.40;;;7.70;99.90;;;;;;5022809;28;20446;-89
2021/12/12 21:07:15;;;;;;;4.90;3.80;;;7.70;99.90;;;;;;5021248;28;20507;-90
2021/12/12 21:09:45;;;;;;;3.73;3.33;;;7.70;99.90;;;;;;5028824;28;20405;-91
2021/12/12 21:12:17;;;;;;;4.73;3.80;;;7.60;99.90;;;;;;5030208;28;20442;-90
2021/12/12 21:14:47;;;;;;;3.63;3.20;;;7.70;99.90;;;;;;5036492;28;20434;-90
2021/12/12 21:17:16;;;;;;;5.40;4.03;;;7.70;99.90;;;;;;5034694;28;20462;-89
2021/12/12 21:19:46;;;;;;;4.30;3.90;;;7.60;99.90;;;;;;5020820;28;20505;-89
2021/12/12 21:22:14;;;;;;;5.40;4.07;;;7.60;99.90;;;;;;5026662;28;20442;-90
2021/12/12 21:24:48;;;;;;;4.87;4.37;;;7.70;99.90;;;;;;5012209;28;20479;-89
2021/12/12 21:27:26;;;;;;;4.00;3.60;;;7.60;99.90;;;;;;5018671;28;20570;-91
2021/12/12 21:29:56;;;;;;;5.10;4.10;;;7.60;99.90;;;;;;5030789;28;20473;-90
2021/12/12 21:32:32;;;;;;;4.33;3.57;;;7.60;99.90;;;;;;5032465;28;20457;-90
2021/12/12 21:35:00;;;;;;;4.70;3.80;;;7.60;99.90;;;;;;5022187;28;20446;-91
2021/12/12 21:37:30;;;;;;;4.43;4.00;;;7.60;99.90;;;;;;5022027;28;20462;-91
2021/12/12 21:40:01;;;;;;;3.83;3.47;;;7.60;99.90;;;;;;5019827;28;20470;-90
2021/12/12 21:42:31;;;;;;;4.23;3.83;;;7.60;99.90;;;;;;5023041;28;20435;-90
2021/12/12 21:45:04;;;;;;;7.00;5.90;;;7.50;99.90;;;;;;5020753;28;20449;-90
2021/12/12 21:47:35;;;;;;;7.10;4.93;;;7.50;99.90;;;;;;5022139;28;21032;-90
2021/12/12 21:50:17;;;;;;;5.77;4.30;;;7.50;99.90;;;;;;5021237;28;20525;-91
2021/12/12 21:52:54;;;;;;;5.00;4.43;;;7.50;99.90;;;;;;5023939;28;20448;-91
2021/12/12 21:55:31;;;;;;;5.27;4.27;;;7.50;99.90;;;;;;5014655;28;20454;-90
2021/12/12 21:58:26;;;;;;;5.30;4.37;;;7.50;99.90;;;;;;5022952;28;20462;-91
2021/12/12 22:01:00;;;;;;;5.83;5.00;;;7.60;99.90;;;;;;5034470;28;20454;-89
2021/12/12 22:03:35;;;;;;;5.83;4.40;;;7.50;99.90;;;;;;5023032;28;20502;-91
2021/12/12 22:06:09;;;;;;;4.30;3.90;;;7.60;99.90;;;;;;5016249;28;20728;-91
2021/12/12 22:08:40;;;;;;;5.50;3.77;;;7.50;99.90;;;;;;5011109;28;20846;-90
2021/12/12 22:11:07;;;;;;;5.23;4.17;;;7.60;99.90;;;;;;5018294;28;20442;-91
2021/12/12 22:13:38;;;;;;;6.23;5.03;;;7.60;99.90;;;;;;5019259;28;20449;-89
2021/12/12 22:16:11;;;;;;;7.17;5.60;;;7.50;99.90;;;;;;5027188;28;20518;-89
2021/12/12 22:18:44;;;;;;;5.80;4.80;;;7.50;99.90;;;;;;5020016;28;20482;-90
2021/12/12 22:21:33;;;;;;;5.93;4.63;;;7.60;99.90;;;;;;5023252;28;20462;-92
2021/12/12 22:24:03;;;;;;;6.10;4.80;;;7.50;99.90;;;;;;5016211;28;20450;-91
2021/12/12 22:26:34;;;;;;;4.77;3.70;;;7.60;99.90;;;;;;5017238;28;20449;-90
2021/12/12 22:29:07;;;;;;;7.43;5.30;;;7.60;99.90;;;;;;5013720;28;20466;-90
2021/12/12 22:31:36;;;;;;;6.87;4.80;;;7.60;99.90;;;;;;5016652;28;20439;-90
2021/12/12 22:34:06;;;;;;;6.10;4.60;;;7.60;99.90;;;;;;5022018;28;20772;-91
2021/12/12 22:36:36;;;;;;;5.40;4.57;;;7.60;99.90;;;;;;5008926;28;20454;-91
2021/12/12 22:39:09;;;;;;;5.10;4.37;;;7.50;99.90;;;;;;5010856;28;20478;-90
2021/12/12 22:41:40;;;;;;;5.53;5.00;;;7.60;99.90;;;;;;5014594;28;20486;-90
2021/12/12 22:44:13;;;;;;;4.90;4.50;;;7.60;99.90;;;;;;5015234;28;20478;-91
2021/12/12 22:46:41;;;;;;;4.80;4.23;;;7.60;99.90;;;;;;5012595;28;20454;-91
2021/12/12 22:49:11;;;;;;;5.83;4.53;;;7.60;99.90;;;;;;5012674;28;20446;-90
2021/12/12 22:51:42;;;;;;;6.30;4.80;;;7.50;99.90;;;;;;5010587;28;20442;-91
2021/12/12 22:54:14;;;;;;;5.20;4.40;;;7.60;99.90;;;;;;5023358;28;20445;-87
2021/12/12 22:56:44;;;;;;;7.93;4.90;;;7.60;99.90;;;;;;5029266;28;20466;-87
2021/12/12 22:59:15;;;;;;;6.50;4.50;;;7.60;99.90;;;;;;5022164;28;20478;-88
2021/12/12 23:01:47;;;;;;;7.07;4.10;;;7.60;99.90;;;;;;5013090;28;20435;-88
2021/12/12 23:04:17;;;;;;;4.73;4.07;;;7.60;99.90;;;;;;5011340;28;20454;-90
2021/12/12 23:06:47;;;;;;;5.10;4.40;;;7.60;99.90;;;;;;5026551;28;20440;-89
2021/12/12 23:09:19;;;;;;;5.83;4.73;;;7.60;99.90;;;;;;5029880;28;20477;-88
2021/12/12 23:11:46;;;;;;;5.43;4.33;;;7.60;99.90;;;;;;5010337;28;20450;-89
2021/12/12 23:14:18;;;;;;;4.77;3.87;;;7.60;99.90;;;;;;5013378;28;20453;-88
2021/12/12 23:16:52;;;;;;;6.07;5.07;;;7.60;99.90;;;;;;5014785;28;20459;-88
2021/12/12 23:19:21;;;;;;;9.70;5.70;;;7.60;99.90;;;;;;5028819;28;20481;-89
2021/12/12 23:21:52;;;;;;;13.00;8.63;;;7.70;99.90;;;;;;5014744;28;20453;-90
2021/12/12 23:24:26;;;;;;;8.87;6.57;;;7.70;99.90;;;;;;5009723;28;20442;-90
2021/12/12 23:26:57;;;;;;;6.20;5.57;;;7.70;99.90;;;;;;5029371;28;20433;-87
2021/12/12 23:29:27;;;;;;;8.00;5.30;;;7.80;99.90;;;;;;5022505;28;20843;-90
2021/12/12 23:32:08;;;;;;;8.50;5.87;;;7.80;99.90;;;;;;5012471;28;20620;-90
2021/12/12 23:34:40;;;;;;;8.70;6.60;;;7.70;99.90;;;;;;5012086;28;20482;-90
2021/12/12 23:37:12;;;;;;;8.87;6.67;;;7.70;99.90;;;;;;5011495;28;20465;-88
2021/12/12 23:39:44;;;;;;;7.63;5.00;;;7.80;99.90;;;;;;5009484;28;20481;-89
2021/12/12 23:42:19;;;;;;;6.30;4.47;;;7.70;99.90;;;;;;5010366;28;20473;-89
2021/12/12 23:44:52;;;;;;;4.67;4.27;;;7.70;99.90;;;;;;5026122;28;20452;-90
2021/12/12 23:47:32;;;;;;;10.00;4.53;;;7.50;99.90;;;;;;5008813;28;20638;-89
2021/12/12 23:50:07;;;;;;;9.73;5.30;;;7.50;99.90;;;;;;5010262;28;20453;-89
2021/12/12 23:52:39;;;;;;;8.30;5.27;;;7.50;99.90;;;;;;5028860;28;20442;-87
2021/12/12 23:55:18;;;;;;;6.83;4.40;;;7.50;99.90;;;;;;5033990;28;20434;-86
2021/12/12 23:57:46;;;;;;;5.00;3.70;;;7.60;99.90;;;;;;5019790;28;20469;-90
